Warning: Javascript must be enabled to use all the features on this page!


Page Loading - Please Wait...

Click to hideNews Bulletins

Peak Streamflow for the Nation

USGS 10315500 MARYS RV ABV HOT SPGS CK NR DEETH, NV

Elko County, Nevada
Hydrologic Unit Code 16040101
Latitude  41°15'10", Longitude 115°15'20" NAD27
Drainage area 415  square miles
Gage datum 5,504 feet above NGVD29
Output formats
Table
Graph
Tab-separated file
peakfq (watstore) format
Reselect output format
Water
Year
Date Gage
Height
(feet)
Stream-
flow
(cfs)
1943 1943-01 7.20Bd 1,0305,Bd
1944 1944-06-15 4.28 3065
1945 1945-05-09 5.99 6765
1946 1946-04-21 5.18 5085
1947 1947-05-10 4.02 2025
1948 1948-05-30 5.00 2595
1949 1949-04-27 4.99 4565
1950 1950-05-26 5.50 4545
1951 1951-04-18 5.396 4525
1952 1952-04-29 6.57 1,2505
1953 1953-06-15 3.71 3985
1954 1954-04-29 2.04 1285
1955 1955-05-25 2.55 1895
1956 1956-05-26 4.68 6105
1957 1957-05-21 4.02 5105
1958 1958-05-23 4.14 5005
1959 1959-06-08 1.98 1285
1960 1960-04-12 2.93 2765
1961 1961-05-26 1.82 1135
1962 1962-02-12 7.63 4,2105
1963 1963-06-16 2.83 3015
1964 1964-05-29 2.68 2775
1965 1965-05-03 3.97 5185
1966 1966-04-03 2.06 1725
1967 1967-05-27 3.21 3585
1968 1968-06-08 2.916 1345
1969 1969-04-24 5.80 6655
1970 1970-05-29 5.19 5145
1971 1971-06-01 5.33 5535
1972 1972-03-19 4.75 4585
1973 1973-05-20 4.34 3705
1974 1974-05-11 5.60 6215
1975 1975-05-18 6.45 8605
1976 1976-05-16 4.15 2905
1977 1977-06-09 3.05 1275
1978 1978-05-18 4.69 3815
1979 1979-05-26 5.27 5185
1980 1980-05-11 4.99 5015
1982 1982-05-05 6.05 7395
1983 1983-05-30 6.796 1,0405
1984 1984-05-15 8.39 2,1105
1985 1985-04-10 5.50 5705
1986 1986-03-10 5.03 5365
1987 1987-05-21 3.15 2015
1988 1988-05-18 2.88 1585
1989 1989-04-23 4.95 5005
1990 1990-06-01 2.75 1165
1991 1991-06-06 3.22 1835
1992 1992-05-01 2.45 81.05
1993 1993-03-29 5.25 5595
1994 1994-05-12 3.12 1555
1995 1995-06-06 4.89 4375
1996 1996-05-18 5.42 5915
1997 1997-05-17 5.16 5575
1998 1998-05-28 4.84 4465
1999 1999-06-01 4.64 3995
2000 2000-05-27 3.50 2115
2001 2001-05-18 2.69 1245
2002 2002-05-01 3.93 2625
2003 2003-06-01 4.04 2505
2004 2004-04-09 3.99 2945
2005 2005-05-18 7.16 9305
2006 2006-04-17 7.48 1,3305
2007 2007-05-04 3.24 1665
2008 2008-05-23 4.64 3675
2009 2009-06-22 4.53 2485
2010 2010-06-10 4.86 3595
2011 2011-05-17 6.84 8125
2012 2012-04-28 3.30 1595
2013 2013-05-17 3.60 1115
2014 2014-05-22 3.67 78.05
2015 2015-05-28 4.97 2995
2016 2016-04-26 5.02 3455
2017 2017-03-23 7.71 9435
2018 2018-05-28 3.95 1745
2019 2019-06-02 6.56 6245
2020 2020-05-04 5.24 3295
?
  Peak Gage-Height Qualification Codes.
?
  Peak Streamflow Qualification Codes.